Tacoma Park, South Dakota
Current Conditions -  °F | °C
As of 4:42 AM on Friday 24 Oct 2014 (Local Time) from KABR Reporting Station
Haze Haze  
Wind Chill: -1°   Ceiling: Unl
Heat Index:   Visibility: 5mi
Dew Point:   Wind: 5mph
Humidity: 92%   Direction: 110°ESE
Pressure: 29.83"   Gusts: NA
Location:  45.6832°N, 98.2967°W
Report Text: KABR 240942Z AUTO 11004KT 5SM BR FEW002 02/01 A2983 RMK AO2 T00170006
Loading
Personal Weather Stations






























Interactive Weather Map
Tropical Storm Tracking
New forecast layout! Learn more

10-Day Weather Forecast

Advertisements
Track Severe Weather on mobile